createdAt,value
2019-04-04T00:01:36.825Z,47.80
2019-04-04T00:04:24.775Z,47.80
2019-04-04T00:07:13.251Z,47.90
2019-04-04T00:10:02.088Z,47.90
2019-04-04T00:12:51.237Z,47.80
2019-04-04T00:15:39.261Z,47.80
2019-04-04T00:18:28.005Z,47.80
2019-04-04T00:21:15.948Z,47.80
2019-04-04T00:24:04.958Z,47.90
2019-04-04T00:26:52.748Z,47.80
2019-04-04T00:29:40.664Z,47.90
2019-04-04T00:32:28.820Z,47.90
2019-04-04T00:35:17.074Z,47.70
2019-04-04T00:38:06.970Z,47.70
2019-04-04T00:40:54.775Z,47.70
2019-04-04T00:43:43.052Z,47.70
2019-04-04T00:46:31.493Z,47.90
2019-04-04T00:49:19.789Z,48.30
2019-04-04T00:52:10.148Z,47.90
2019-04-04T00:54:57.644Z,48.00
2019-04-04T00:57:45.534Z,48.00
2019-04-04T01:00:33.684Z,48.00
2019-04-04T01:03:21.585Z,48.00
2019-04-04T01:06:09.703Z,48.00
2019-04-04T01:08:57.795Z,48.00
2019-04-04T01:11:45.787Z,48.00
2019-04-04T01:14:33.756Z,48.10
2019-04-04T01:17:21.854Z,48.00
2019-04-04T01:20:09.750Z,47.90
2019-04-04T01:22:58.011Z,47.90
2019-04-04T01:25:45.977Z,48.10
2019-04-04T01:28:33.995Z,48.00
2019-04-04T01:31:22.289Z,48.00
2019-04-04T01:34:10.313Z,47.90
2019-04-04T01:36:58.300Z,48.00
2019-04-04T01:39:46.707Z,48.70
2019-04-04T01:42:38.632Z,48.50
2019-04-04T01:45:27.268Z,48.00
2019-04-04T01:48:18.463Z,47.90
2019-04-04T01:51:07.726Z,48.10
2019-04-04T01:53:55.006Z,48.30
2019-04-04T01:56:43.299Z,48.20
2019-04-04T01:59:31.180Z,48.20
2019-04-04T02:02:19.117Z,48.30
2019-04-04T02:05:07.148Z,48.50
2019-04-04T02:07:55.362Z,48.40
2019-04-04T02:10:43.565Z,48.30
2019-04-04T02:13:31.405Z,48.30
2019-04-04T02:16:19.580Z,48.30
2019-04-04T02:19:08.695Z,48.20
2019-04-04T02:21:57.888Z,48.20
2019-04-04T02:24:46.454Z,48.30
2019-04-04T02:27:37.550Z,48.30
2019-04-04T02:30:24.684Z,48.30
2019-04-04T02:33:12.775Z,48.20
2019-04-04T02:36:00.665Z,48.20
2019-04-04T02:39:03.957Z,48.30
2019-04-04T02:41:51.698Z,48.30
2019-04-04T02:44:40.216Z,48.30
2019-04-04T02:47:28.490Z,48.30
2019-04-04T02:50:17.123Z,48.40
2019-04-04T02:53:05.372Z,48.30
2019-04-04T02:55:53.780Z,48.20
2019-04-04T02:58:43.783Z,48.20
2019-04-04T03:01:33.326Z,48.00
2019-04-04T03:04:21.193Z,48.00
2019-04-04T03:07:09.686Z,48.00
2019-04-04T03:09:57.824Z,47.90
2019-04-04T03:12:45.774Z,48.10
2019-04-04T03:15:33.512Z,48.00
2019-04-04T03:18:21.979Z,47.90
2019-04-04T03:21:10.133Z,48.00
2019-04-04T03:23:58.222Z,48.20
2019-04-04T03:26:46.232Z,48.00
2019-04-04T03:29:37.305Z,47.90
2019-04-04T03:32:23.661Z,47.90
2019-04-04T03:35:11.646Z,47.80
2019-04-04T03:37:59.801Z,47.90
2019-04-04T03:40:47.703Z,47.90
2019-04-04T03:43:37.608Z,47.80
2019-04-04T03:46:25.757Z,47.80
2019-04-04T03:49:13.692Z,47.80
2019-04-04T03:52:01.888Z,47.80
2019-04-04T03:54:49.876Z,47.90
2019-04-04T03:57:37.686Z,47.90
2019-04-04T04:00:26.713Z,47.90
2019-04-04T04:03:14.350Z,47.80
2019-04-04T04:06:02.529Z,47.80
2019-04-04T04:08:53.631Z,47.70
2019-04-04T04:11:40.682Z,47.90
2019-04-04T04:14:28.873Z,48.00
2019-04-04T04:17:16.947Z,47.90
2019-04-04T04:20:05.941Z,47.90
2019-04-04T04:22:54.179Z,48.10
2019-04-04T04:25:43.980Z,48.00
2019-04-04T04:28:32.096Z,48.00
2019-04-04T04:31:19.997Z,48.70
2019-04-04T04:34:08.002Z,48.10
2019-04-04T04:36:55.973Z,48.10
2019-04-04T04:39:44.059Z,48.10
2019-04-04T04:42:32.089Z,48.00
2019-04-04T04:45:20.117Z,48.10
2019-04-04T04:48:08.436Z,48.20
2019-04-04T04:50:56.553Z,48.10
2019-04-04T04:53:45.673Z,48.10
2019-04-04T04:56:35.179Z,48.20
2019-04-04T04:59:24.555Z,48.30
2019-04-04T05:02:12.429Z,48.20
2019-04-04T05:05:00.312Z,48.20
2019-04-04T05:07:47.943Z,48.00
2019-04-04T05:10:36.641Z,48.10
2019-04-04T05:13:26.092Z,48.10
2019-04-04T05:16:14.632Z,48.10
2019-04-04T05:19:02.751Z,48.10
2019-04-04T05:21:50.718Z,48.10
2019-04-04T05:24:39.768Z,48.20
2019-04-04T05:27:29.229Z,48.30
2019-04-04T05:30:20.266Z,48.20
2019-04-04T05:33:06.767Z,48.30
2019-04-04T05:35:54.917Z,48.30
2019-04-04T05:38:47.046Z,48.40
2019-04-04T05:41:33.942Z,48.40
2019-04-04T05:44:21.974Z,48.50
2019-04-04T05:47:09.916Z,48.40
2019-04-04T05:49:58.099Z,48.30
2019-04-04T05:52:46.025Z,48.30
2019-04-04T05:55:34.123Z,48.70
2019-04-04T05:58:22.728Z,48.20
2019-04-04T06:01:12.800Z,48.20
2019-04-04T06:04:03.711Z,48.20
2019-04-04T06:06:50.224Z,48.30
2019-04-04T06:09:38.620Z,48.40
2019-04-04T06:12:26.523Z,48.50
2019-04-04T06:15:14.545Z,48.50
2019-04-04T06:18:02.531Z,48.40
2019-04-04T06:20:50.744Z,48.30
2019-04-04T06:23:38.807Z,48.40
2019-04-04T06:26:26.882Z,48.40
2019-04-04T06:29:15.229Z,48.60
2019-04-04T06:32:04.781Z,48.80
2019-04-04T06:34:52.504Z,48.80
2019-04-04T06:37:40.615Z,48.80
2019-04-04T06:40:30.232Z,49.00
2019-04-04T06:43:18.819Z,49.10
2019-04-04T06:46:07.033Z,49.00
2019-04-04T06:48:54.594Z,49.00
2019-04-04T06:51:46.069Z,48.80
2019-04-04T06:54:32.702Z,48.90
2019-04-04T06:57:20.796Z,48.80
2019-04-04T07:00:09.548Z,48.70
2019-04-04T07:02:57.377Z,48.80
2019-04-04T07:05:45.161Z,48.80
2019-04-04T07:08:33.095Z,48.90
2019-04-04T07:11:21.857Z,48.80
2019-04-04T07:14:10.118Z,48.70
2019-04-04T07:16:58.256Z,48.60
2019-04-04T07:19:46.888Z,48.60
2019-04-04T07:22:36.154Z,49.20
2019-04-04T07:25:24.454Z,48.80
2019-04-04T07:28:12.748Z,48.80
2019-04-04T07:31:01.751Z,48.70
2019-04-04T07:33:50.904Z,48.70
2019-04-04T07:36:38.780Z,48.70
2019-04-04T07:39:27.144Z,48.50
2019-04-04T07:42:15.906Z,48.50
2019-04-04T07:45:05.910Z,48.50
2019-04-04T07:47:53.928Z,48.80
2019-04-04T07:50:42.220Z,48.90
2019-04-04T07:53:30.087Z,48.80
2019-04-04T07:56:18.357Z,48.90
2019-04-04T07:59:06.598Z,48.60
2019-04-04T08:01:54.817Z,48.70
2019-04-04T08:04:42.997Z,48.80
2019-04-04T08:07:31.059Z,48.80
2019-04-04T08:10:20.727Z,48.80
2019-04-04T08:13:08.771Z,48.80
2019-04-04T08:15:56.526Z,48.80
2019-04-04T08:18:44.771Z,48.60
2019-04-04T08:21:34.150Z,48.60
2019-04-04T08:24:22.023Z,48.50
2019-04-04T08:27:10.122Z,48.50
2019-04-04T08:29:58.066Z,48.40
2019-04-04T08:32:47.844Z,48.30
2019-04-04T08:35:35.684Z,48.30
2019-04-04T08:38:23.612Z,48.00
2019-04-04T08:41:11.874Z,47.80
2019-04-04T08:44:00.111Z,47.70
2019-04-04T08:46:48.179Z,47.50
2019-04-04T08:49:36.355Z,47.60
2019-04-04T08:52:24.136Z,47.80
2019-04-04T08:55:12.016Z,47.60
2019-04-04T08:58:00.011Z,47.70
2019-04-04T09:00:48.040Z,47.70
2019-04-04T09:03:36.139Z,47.70
2019-04-04T09:06:24.025Z,47.60
2019-04-04T09:09:12.207Z,47.50
2019-04-04T09:12:00.104Z,47.50
2019-04-04T09:14:48.113Z,48.20
2019-04-04T09:17:36.373Z,47.00
2019-04-04T09:20:24.218Z,47.00
2019-04-04T09:23:12.484Z,46.90
2019-04-04T09:26:05.758Z,47.00
2019-04-04T09:28:51.211Z,46.70
2019-04-04T09:31:38.695Z,46.50
2019-04-04T09:34:26.735Z,46.40
2019-04-04T09:37:15.040Z,45.80
2019-04-04T09:40:05.140Z,46.50
2019-04-04T09:42:53.426Z,46.30
2019-04-04T09:45:41.207Z,46.40
2019-04-04T09:48:28.968Z,46.00
2019-04-04T09:51:17.064Z,45.70
2019-04-04T09:54:05.410Z,45.40
2019-04-04T09:56:53.290Z,45.20
2019-04-04T09:59:41.165Z,45.00
2019-04-04T10:02:29.172Z,44.90
2019-04-04T10:05:17.906Z,44.70
2019-04-04T10:08:06.592Z,44.70
2019-04-04T10:10:54.431Z,44.60
2019-04-04T10:13:42.352Z,44.40
2019-04-04T10:16:30.503Z,44.10
2019-04-04T10:19:18.692Z,44.00
2019-04-04T10:22:06.955Z,44.50
2019-04-04T10:24:54.881Z,43.40
2019-04-04T10:27:43.253Z,43.10
2019-04-04T10:30:31.251Z,42.50
2019-04-04T10:33:19.173Z,42.20
2019-04-04T10:36:09.296Z,41.40
2019-04-04T10:38:57.205Z,41.00
2019-04-04T10:41:45.273Z,40.60
2019-04-04T10:44:33.027Z,40.60
2019-04-04T10:47:21.277Z,40.40
2019-04-04T10:50:09.300Z,40.50
2019-04-04T10:52:57.535Z,40.30
2019-04-04T10:55:45.623Z,40.10
2019-04-04T10:58:33.428Z,40.20
2019-04-04T11:01:21.310Z,40.00
2019-04-04T11:04:09.494Z,40.10
2019-04-04T11:06:57.686Z,40.00
2019-04-04T11:09:45.607Z,39.60
2019-04-04T11:12:34.458Z,39.90
2019-04-04T11:15:22.848Z,39.90
2019-04-04T11:18:11.106Z,40.20
2019-04-04T11:20:58.790Z,40.90
2019-04-04T11:23:46.925Z,41.00
2019-04-04T11:26:34.961Z,41.20
2019-04-04T11:29:22.812Z,41.20
2019-04-04T11:32:10.743Z,41.40
2019-04-04T11:34:59.500Z,41.00
2019-04-04T11:37:47.668Z,41.40
2019-04-04T11:40:35.785Z,41.40
2019-04-04T11:43:24.328Z,41.70
2019-04-04T11:46:12.152Z,41.70
2019-04-04T11:49:00.473Z,41.60
2019-04-04T11:51:48.581Z,41.30
2019-04-04T11:54:38.454Z,41.20
2019-04-04T11:57:26.145Z,41.20
2019-04-04T12:00:15.723Z,41.20
2019-04-04T12:03:04.562Z,41.20
2019-04-04T12:05:54.187Z,41.30
2019-04-04T12:08:42.247Z,41.10
2019-04-04T12:11:30.253Z,40.90
2019-04-04T12:14:17.930Z,40.90
2019-04-04T12:17:05.905Z,41.10
2019-04-04T12:19:53.905Z,41.20
2019-04-04T12:22:41.910Z,41.10
2019-04-04T12:25:31.421Z,41.00
2019-04-04T12:28:19.172Z,41.00
2019-04-04T12:31:07.512Z,41.30
2019-04-04T12:33:55.722Z,41.20
2019-04-04T12:36:43.692Z,41.20
2019-04-04T12:39:32.210Z,41.10
2019-04-04T12:42:20.519Z,40.90
2019-04-04T12:45:09.523Z,41.10
2019-04-04T12:47:57.724Z,41.10
2019-04-04T12:50:48.304Z,41.10
2019-04-04T12:53:35.533Z,40.90
2019-04-04T12:56:23.491Z,40.70
2019-04-04T12:59:11.825Z,40.80
2019-04-04T13:02:00.909Z,40.90
2019-04-04T13:04:48.852Z,40.90
2019-04-04T13:07:36.808Z,41.00
2019-04-04T13:10:32.972Z,40.90
2019-04-04T13:13:14.698Z,40.90
2019-04-04T13:16:02.342Z,40.70
2019-04-04T13:18:51.832Z,40.80
2019-04-04T13:21:40.002Z,40.70
2019-04-04T13:24:29.274Z,40.70
2019-04-04T13:27:17.847Z,40.50
2019-04-04T13:30:10.114Z,40.00
2019-04-04T13:32:59.949Z,40.50
2019-04-04T13:35:48.235Z,40.40
2019-04-04T13:38:36.380Z,40.40
2019-04-04T13:41:24.271Z,40.30
2019-04-04T13:44:12.758Z,40.20
2019-04-04T13:47:02.789Z,40.20
2019-04-04T13:49:50.144Z,40.50
2019-04-04T13:52:38.686Z,40.30
2019-04-04T13:55:27.323Z,40.10
2019-04-04T13:58:17.651Z,40.10
2019-04-04T14:01:07.155Z,40.20
2019-04-04T14:03:55.119Z,40.20
2019-04-04T14:06:43.156Z,40.10
2019-04-04T14:09:31.174Z,40.30
2019-04-04T14:12:19.190Z,40.60
2019-04-04T14:15:10.116Z,40.70
2019-04-04T14:18:01.170Z,40.90
2019-04-04T14:21:02.603Z,41.10
2019-04-04T14:23:41.267Z,41.10
2019-04-04T14:26:31.328Z,40.90
2019-04-04T14:29:27.377Z,41.00
2019-04-04T14:32:08.433Z,41.00
2019-04-04T14:34:56.349Z,41.00
2019-04-04T14:37:44.313Z,41.00
2019-04-04T14:40:32.167Z,41.00
2019-04-04T14:43:20.346Z,41.00
2019-04-04T14:46:08.326Z,40.80
2019-04-04T14:48:56.022Z,40.80
2019-04-04T14:51:44.063Z,40.80
2019-04-04T14:54:32.006Z,40.80
2019-04-04T14:57:19.928Z,40.80
2019-04-04T15:00:09.606Z,40.90
2019-04-04T15:02:58.617Z,41.00
2019-04-04T15:05:46.448Z,41.10
2019-04-04T15:08:34.343Z,41.00
2019-04-04T15:11:24.385Z,41.10
2019-04-04T15:14:11.729Z,41.00
2019-04-04T15:16:59.419Z,41.20
2019-04-04T15:19:48.369Z,41.90
2019-04-04T15:22:36.272Z,41.90
2019-04-04T15:25:25.114Z,41.60
2019-04-04T15:28:13.350Z,41.60
2019-04-04T15:31:01.414Z,41.40
2019-04-04T15:33:50.563Z,41.30
2019-04-04T15:36:38.755Z,41.30
2019-04-04T15:39:26.718Z,41.20
2019-04-04T15:42:14.687Z,41.00
2019-04-04T15:45:44.903Z,40.90
2019-04-04T15:48:33.011Z,40.90
2019-04-04T15:51:20.968Z,40.80
2019-04-04T15:54:09.110Z,40.70
2019-04-04T15:56:57.279Z,40.80
2019-04-04T15:59:45.348Z,40.90
2019-04-04T16:02:35.372Z,40.80
2019-04-04T16:05:23.511Z,40.70
2019-04-04T16:08:14.938Z,40.70
2019-04-04T16:11:02.921Z,40.50
2019-04-04T16:13:52.283Z,40.60
2019-04-04T16:16:40.251Z,40.60
2019-04-04T16:19:27.949Z,40.40
2019-04-04T16:22:16.483Z,40.40
2019-04-04T16:25:06.250Z,40.30
2019-04-04T16:27:54.282Z,40.40
2019-04-04T16:30:42.259Z,40.40
2019-04-04T16:33:30.389Z,40.30
2019-04-04T16:36:18.705Z,40.20
2019-04-04T16:39:07.872Z,40.20
2019-04-04T16:42:01.996Z,40.20
2019-04-04T16:44:45.507Z,40.30
2019-04-04T16:47:33.505Z,40.10
2019-04-04T16:50:21.285Z,40.10
2019-04-04T16:53:09.372Z,40.10
2019-04-04T16:55:57.379Z,40.10
2019-04-04T16:58:45.148Z,40.10
2019-04-04T17:01:33.330Z,40.20
2019-04-04T17:04:21.201Z,40.30
2019-04-04T17:07:09.411Z,40.20
2019-04-04T17:09:57.510Z,40.20
2019-04-04T17:12:45.708Z,40.00
2019-04-04T17:15:33.530Z,40.10
2019-04-04T17:18:21.636Z,40.00
2019-04-04T17:21:09.772Z,41.00
2019-04-04T17:23:57.694Z,40.30
2019-04-04T17:26:45.946Z,40.30
2019-04-04T17:29:33.685Z,40.30
2019-04-04T17:32:22.346Z,40.40
2019-04-04T17:35:10.823Z,40.40
2019-04-04T17:37:59.500Z,40.50
2019-04-04T17:40:48.516Z,40.30
2019-04-04T17:43:36.809Z,40.20
2019-04-04T17:46:25.149Z,40.20
2019-04-04T17:49:13.473Z,40.30
2019-04-04T17:52:01.137Z,40.20
2019-04-04T17:54:48.934Z,40.30
2019-04-04T17:57:37.216Z,40.20
2019-04-04T18:00:27.017Z,40.20
2019-04-04T18:03:15.100Z,40.40
2019-04-04T18:06:03.069Z,40.70
2019-04-04T18:08:51.074Z,41.00
2019-04-04T18:11:38.959Z,41.20
2019-04-04T18:14:27.241Z,41.50
2019-04-04T18:17:15.426Z,41.80
2019-04-04T18:20:05.731Z,42.20
2019-04-04T18:22:53.667Z,42.30
2019-04-04T18:25:41.977Z,42.90
2019-04-04T18:28:30.243Z,42.90
2019-04-04T18:31:18.111Z,42.80
2019-04-04T18:34:08.680Z,42.90
2019-04-04T18:36:56.514Z,43.20
2019-04-04T18:39:45.021Z,43.20
2019-04-04T18:42:32.817Z,43.30
2019-04-04T18:45:20.973Z,43.40
2019-04-04T18:48:08.726Z,43.50
2019-04-04T18:50:56.999Z,43.70
2019-04-04T18:53:44.841Z,43.80
2019-04-04T18:56:32.847Z,44.00
2019-04-04T18:59:20.705Z,44.10
2019-04-04T19:02:06.893Z,44.00
2019-04-04T19:04:51.865Z,44.20
2019-04-04T19:07:39.626Z,44.30
2019-04-04T19:10:23.974Z,44.40
2019-04-04T19:13:09.011Z,44.50
2019-04-04T19:15:54.393Z,44.50
2019-04-04T19:18:39.212Z,44.50
2019-04-04T19:21:25.310Z,44.50
2019-04-04T19:24:10.434Z,44.70
2019-04-04T19:26:56.958Z,44.50
2019-04-04T19:29:42.248Z,44.50
2019-04-04T19:32:27.724Z,44.60
2019-04-04T19:35:13.128Z,44.60
2019-04-04T19:38:00.335Z,44.60
2019-04-04T19:40:44.609Z,44.60
2019-04-04T19:43:30.833Z,44.60
2019-04-04T19:46:15.968Z,44.70
2019-04-04T19:49:01.519Z,44.70
2019-04-04T19:51:46.451Z,44.70
2019-04-04T19:54:31.920Z,44.80
2019-04-04T19:57:17.231Z,44.90
2019-04-04T20:00:08.038Z,44.90
2019-04-04T20:02:53.168Z,44.90
2019-04-04T20:05:38.691Z,45.00
2019-04-04T20:08:23.994Z,45.00
2019-04-04T20:11:09.273Z,45.00
2019-04-04T20:13:54.878Z,44.90
2019-04-04T20:16:40.138Z,45.00
2019-04-04T20:19:25.473Z,45.00
2019-04-04T20:22:10.237Z,45.00
2019-04-04T20:24:57.465Z,45.00
2019-04-04T20:27:54.114Z,45.00
2019-04-04T20:30:36.050Z,45.00
2019-04-04T20:33:21.142Z,45.00
2019-04-04T20:36:06.620Z,45.20
2019-04-04T20:38:51.834Z,45.30
2019-04-04T20:41:36.713Z,45.20
2019-04-04T20:44:21.918Z,45.20
2019-04-04T20:47:06.890Z,45.20
2019-04-04T20:49:51.942Z,45.20
2019-04-04T20:52:38.951Z,45.20
2019-04-04T20:55:24.291Z,45.10
2019-04-04T20:58:09.073Z,45.00
2019-04-04T21:00:54.048Z,44.90
2019-04-04T21:03:39.171Z,44.60
2019-04-04T21:06:24.383Z,44.70
2019-04-04T21:09:09.135Z,44.90
2019-04-04T21:11:54.419Z,45.00
2019-04-04T21:14:41.111Z,45.00
2019-04-04T21:17:26.067Z,45.10
2019-04-04T21:20:10.926Z,45.20
2019-04-04T21:22:56.103Z,45.10
2019-04-04T21:25:43.780Z,45.00
2019-04-04T21:28:28.720Z,45.90
2019-04-04T21:31:14.512Z,45.10
2019-04-04T21:33:59.295Z,45.10
2019-04-04T21:36:44.093Z,44.90
2019-04-04T21:39:29.901Z,44.90
2019-04-04T21:42:15.434Z,44.80
2019-04-04T21:45:00.457Z,44.80
2019-04-04T21:47:45.500Z,44.70
2019-04-04T21:50:30.654Z,44.80
2019-04-04T21:53:15.460Z,44.80
2019-04-04T21:56:00.717Z,44.80
2019-04-04T21:58:45.924Z,44.90
2019-04-04T22:01:31.520Z,44.80
2019-04-04T22:04:16.837Z,44.80
2019-04-04T22:07:03.202Z,44.80
2019-04-04T22:09:48.519Z,44.90
2019-04-04T22:12:34.946Z,44.90
2019-04-04T22:15:20.239Z,44.90
2019-04-04T22:18:05.406Z,45.00
2019-04-04T22:20:50.831Z,45.00
2019-04-04T22:23:36.190Z,45.10
2019-04-04T22:26:21.779Z,45.20
2019-04-04T22:29:07.320Z,45.30
2019-04-04T22:31:52.450Z,45.40
2019-04-04T22:34:37.776Z,45.40
2019-04-04T22:37:23.098Z,45.40
2019-04-04T22:40:08.485Z,45.50
2019-04-04T22:42:53.828Z,45.50
2019-04-04T22:45:41.066Z,45.50
2019-04-04T22:48:27.378Z,45.50
2019-04-04T22:51:12.516Z,45.50
2019-04-04T22:53:57.772Z,45.50
2019-04-04T22:56:43.268Z,45.70
2019-04-04T22:59:28.979Z,45.80
2019-04-04T23:02:14.260Z,45.80
2019-04-04T23:04:59.542Z,45.80
2019-04-04T23:07:45.009Z,45.80
2019-04-04T23:10:30.344Z,45.70
2019-04-04T23:13:15.549Z,45.80
2019-04-04T23:16:01.736Z,45.90
2019-04-04T23:18:46.930Z,45.90
2019-04-04T23:21:32.772Z,45.80
2019-04-04T23:24:17.794Z,45.50
2019-04-04T23:27:03.036Z,45.80
2019-04-04T23:29:48.854Z,46.00
2019-04-04T23:32:34.093Z,46.00
2019-04-04T23:35:19.403Z,46.10
2019-04-04T23:38:06.657Z,46.10
2019-04-04T23:40:52.130Z,46.10
2019-04-04T23:43:38.754Z,46.10
2019-04-04T23:46:23.989Z,46.00
2019-04-04T23:49:09.350Z,46.10
2019-04-04T23:51:55.104Z,46.10
2019-04-04T23:54:40.465Z,46.30
2019-04-04T23:57:26.442Z,46.20
